createdAt,value
2023-03-11T00:02:14.800Z,82.45
2023-03-11T00:07:14.457Z,82.02
2023-03-11T00:12:13.714Z,82.34
2023-03-11T00:17:12.887Z,82.20
2023-03-11T00:22:12.211Z,82.33
2023-03-11T00:27:12.016Z,82.45
2023-03-11T00:32:12.291Z,82.44
2023-03-11T00:37:12.143Z,82.11
2023-03-11T00:42:11.519Z,81.92
2023-03-11T00:47:13.150Z,82.21
2023-03-11T00:52:12.959Z,82.19
2023-03-11T00:57:11.966Z,82.28
2023-03-11T01:02:12.207Z,81.68
2023-03-11T01:07:11.840Z,81.94
2023-03-11T01:12:12.117Z,82.17
2023-03-11T01:17:11.974Z,82.43
2023-03-11T01:22:11.704Z,82.44
2023-03-11T01:27:10.962Z,82.59
2023-03-11T01:32:11.515Z,82.41
2023-03-11T01:37:10.861Z,82.36
2023-03-11T01:42:11.608Z,82.57
2023-03-11T01:47:39.044Z,82.40
2023-03-11T01:52:41.492Z,82.45
2023-03-11T01:57:43.728Z,82.58
2023-03-11T02:02:51.752Z,82.70
2023-03-11T02:07:57.227Z,82.80
2023-03-11T02:12:58.890Z,82.83
2023-03-11T02:18:00.650Z,82.85
2023-03-11T02:23:03.670Z,82.63
2023-03-11T02:28:05.119Z,82.68
2023-03-11T02:33:07.415Z,82.50
2023-03-11T02:38:07.375Z,82.94
2023-03-11T02:43:14.323Z,82.98
2023-03-11T02:48:16.930Z,82.90
2023-03-11T02:53:16.598Z,83.00
2023-03-11T02:58:15.996Z,83.13
2023-03-11T03:03:16.146Z,82.99
2023-03-11T03:08:15.360Z,83.11
2023-03-11T03:13:15.759Z,83.06
2023-03-11T03:18:15.278Z,82.96
2023-03-11T03:23:14.863Z,82.96
2023-03-11T03:28:15.518Z,82.96
2023-03-11T03:33:17.526Z,82.99
2023-03-11T03:38:17.539Z,82.92
2023-03-11T03:43:18.301Z,82.87
2023-03-11T03:48:18.431Z,82.74
2023-03-11T03:53:18.041Z,82.66
2023-03-11T03:58:17.920Z,82.49
2023-03-11T04:03:17.837Z,82.57
2023-03-11T04:08:24.375Z,82.49
2023-03-11T04:13:24.273Z,82.39
2023-03-11T04:18:24.295Z,82.26
2023-03-11T04:23:23.557Z,82.25
2023-03-11T04:28:23.176Z,82.24
2023-03-11T04:33:22.891Z,82.18
2023-03-11T04:38:24.353Z,82.12
2023-03-11T04:43:24.429Z,82.09
2023-03-11T04:48:24.908Z,82.06
2023-03-11T04:53:24.375Z,82.04
2023-03-11T04:58:24.479Z,82.01
2023-03-11T05:03:25.347Z,82.02
2023-03-11T05:08:25.627Z,82.07
2023-03-11T05:13:27.030Z,82.07
2023-03-11T05:18:26.600Z,82.14
2023-03-11T05:23:28.329Z,82.16
2023-03-11T05:28:27.673Z,82.19
2023-03-11T05:33:32.736Z,82.26
2023-03-11T05:38:32.747Z,82.33
2023-03-11T05:43:32.103Z,82.48
2023-03-11T05:48:31.839Z,82.49
2023-03-11T05:53:31.292Z,82.53
2023-03-11T05:58:32.575Z,82.60
2023-03-11T06:03:32.482Z,82.68
2023-03-11T06:08:38.269Z,82.70
2023-03-11T06:13:39.297Z,82.95
2023-03-11T06:18:39.071Z,83.17
2023-03-11T06:23:38.973Z,83.27
2023-03-11T06:28:38.628Z,83.85
2023-03-11T06:33:39.002Z,83.55
2023-03-11T06:38:39.900Z,83.78
2023-03-11T06:43:40.295Z,83.93
2023-03-11T06:48:40.867Z,83.90
2023-03-11T06:53:41.300Z,84.25
2023-03-11T06:58:43.819Z,83.96
2023-03-11T07:03:47.070Z,83.68
2023-03-11T07:08:47.472Z,83.53
2023-03-11T07:13:47.551Z,83.45
2023-03-11T07:18:48.488Z,83.17
2023-03-11T07:23:50.975Z,82.95
2023-03-11T07:28:50.552Z,82.56
2023-03-11T07:33:50.406Z,82.43
2023-03-11T07:38:56.225Z,82.46
2023-03-11T07:44:00.416Z,82.19
2023-03-11T07:49:00.753Z,82.09
2023-03-11T07:54:03.598Z,82.07
2023-03-11T07:59:06.176Z,82.23
2023-03-11T08:04:06.846Z,82.32
2023-03-11T08:09:10.045Z,82.20
2023-03-11T08:14:10.337Z,82.21
2023-03-11T08:19:09.267Z,82.30
2023-03-11T08:24:12.001Z,82.73
2023-03-11T08:29:11.268Z,82.79
2023-03-11T08:34:13.212Z,83.04
2023-03-11T08:39:12.990Z,83.20
2023-03-11T08:44:11.679Z,83.50
2023-03-11T08:49:11.406Z,83.23
2023-03-11T08:54:11.134Z,83.57
2023-03-11T08:59:09.827Z,83.60
2023-03-11T09:04:09.804Z,83.76
2023-03-11T09:09:09.388Z,84.09
2023-03-11T09:14:08.684Z,84.08
2023-03-11T09:19:08.506Z,84.56
2023-03-11T09:24:09.846Z,84.68
2023-03-11T09:29:08.756Z,84.59
2023-03-11T09:34:08.742Z,84.87
2023-03-11T09:39:07.808Z,85.44
2023-03-11T09:44:21.875Z,85.26
2023-03-11T09:49:33.008Z,85.29
2023-03-11T09:54:39.674Z,84.92
2023-03-11T09:59:43.739Z,84.09
2023-03-11T10:04:52.684Z,83.99
2023-03-11T10:09:56.923Z,83.97
2023-03-11T10:15:18.048Z,83.58
2023-03-11T10:20:28.688Z,83.69
2023-03-11T10:25:37.531Z,84.01
2023-03-11T10:30:43.817Z,83.91
2023-03-11T10:35:46.958Z,83.30
2023-03-11T10:40:52.203Z,83.61
2023-03-11T10:45:55.765Z,84.77
2023-03-11T10:51:18.255Z,85.44
2023-03-11T10:56:41.266Z,85.81
2023-03-11T11:01:40.501Z,85.62
2023-03-11T11:06:40.898Z,85.93
2023-03-11T11:11:41.102Z,85.38
2023-03-11T11:16:42.017Z,84.54
2023-03-11T11:21:50.250Z,83.74
2023-03-11T11:27:15.602Z,81.32
2023-03-11T11:32:27.688Z,81.35
2023-03-11T11:37:32.202Z,81.02
2023-03-11T11:42:34.810Z,80.99
2023-03-11T11:47:38.169Z,80.57
2023-03-11T11:52:45.493Z,81.11
2023-03-11T11:57:45.162Z,81.83
2023-03-11T12:03:05.524Z,82.44
2023-03-11T12:08:17.358Z,83.15
2023-03-11T12:14:04.476Z,83.56
2023-03-11T12:19:15.123Z,83.98
2023-03-11T12:24:34.053Z,84.28
2023-03-11T12:29:43.259Z,84.45
2023-03-11T12:34:44.442Z,85.09
2023-03-11T12:39:44.319Z,85.52
2023-03-11T12:44:45.325Z,85.63
2023-03-11T12:49:46.539Z,85.29
2023-03-11T12:54:47.425Z,85.34
2023-03-11T13:00:29.244Z,85.17
2023-03-11T13:05:44.084Z,85.68
2023-03-11T13:10:48.354Z,86.18
2023-03-11T13:15:47.633Z,85.97
2023-03-11T13:21:03.409Z,86.37
2023-03-11T13:26:41.737Z,86.78
2023-03-11T13:32:18.811Z,87.46
2023-03-11T13:37:34.351Z,87.83
2023-03-11T13:42:39.107Z,87.93
2023-03-11T13:47:44.789Z,88.09
2023-03-11T13:52:53.806Z,88.35
2023-03-11T13:57:58.346Z,88.57
2023-03-11T14:03:00.922Z,88.58
2023-03-11T14:08:20.975Z,88.55
2023-03-11T14:13:21.904Z,88.47
2023-03-11T14:18:37.005Z,87.91
2023-03-11T14:23:44.111Z,86.12
2023-03-11T14:28:48.631Z,84.76
2023-03-11T14:33:58.728Z,84.17
2023-03-11T14:38:58.034Z,82.83
2023-03-11T14:43:58.987Z,81.67
2023-03-11T14:49:04.492Z,81.39
2023-03-11T14:54:17.293Z,80.62
2023-03-11T14:59:26.996Z,80.09
2023-03-11T15:04:34.595Z,79.90
2023-03-11T15:09:34.665Z,79.27
2023-03-11T15:14:37.101Z,79.23
2023-03-11T15:19:38.564Z,78.66
2023-03-11T15:24:38.495Z,78.23
2023-03-11T15:29:39.995Z,78.22
2023-03-11T15:34:39.505Z,77.92
2023-03-11T15:39:53.271Z,77.54
2023-03-11T15:45:17.366Z,75.94
2023-03-11T15:50:46.713Z,75.35
2023-03-11T15:55:52.070Z,74.71
2023-03-11T16:00:56.454Z,74.65
2023-03-11T16:05:55.881Z,75.04
2023-03-11T16:10:55.644Z,74.75
2023-03-11T16:15:54.755Z,74.71
2023-03-11T16:20:56.753Z,74.38
2023-03-11T16:26:00.782Z,74.31
2023-03-11T16:30:59.525Z,74.57
2023-03-11T16:35:58.702Z,73.66
2023-03-11T16:41:05.155Z,73.51
2023-03-11T16:46:04.166Z,73.42
2023-03-11T16:51:04.033Z,73.01
2023-03-11T16:56:03.169Z,73.55
2023-03-11T17:01:03.170Z,73.59
2023-03-11T17:06:07.872Z,73.57
2023-03-11T17:11:07.334Z,73.70
2023-03-11T17:16:07.775Z,74.10
2023-03-11T17:21:12.729Z,74.51
2023-03-11T17:26:16.993Z,74.79
2023-03-11T17:31:21.334Z,75.26
2023-03-11T17:36:21.407Z,75.47
2023-03-11T17:41:25.524Z,75.49
2023-03-11T17:46:25.362Z,75.47
2023-03-11T17:51:28.387Z,75.33
2023-03-11T17:56:28.215Z,75.51
2023-03-11T18:01:30.795Z,75.63
2023-03-11T18:06:30.366Z,75.75
2023-03-11T18:11:32.010Z,75.65
2023-03-11T18:16:33.871Z,75.72
2023-03-11T18:21:35.141Z,75.56
2023-03-11T18:26:34.845Z,75.49
2023-03-11T18:31:35.223Z,75.49
2023-03-11T18:36:37.925Z,75.47
2023-03-11T18:41:39.073Z,75.56
2023-03-11T18:46:38.782Z,75.41
2023-03-11T18:51:38.514Z,75.47
2023-03-11T18:56:37.533Z,75.34
2023-03-11T19:01:36.513Z,75.31
2023-03-11T19:06:36.130Z,75.32
2023-03-11T19:11:36.304Z,75.24
2023-03-11T19:16:35.829Z,75.26
2023-03-11T19:21:35.831Z,74.91
2023-03-11T19:26:44.732Z,75.09
2023-03-11T19:31:45.988Z,75.14
2023-03-11T19:36:47.037Z,75.20
2023-03-11T19:41:45.901Z,75.30
2023-03-11T19:46:45.337Z,75.44
2023-03-11T19:51:50.159Z,75.46
2023-03-11T19:56:51.368Z,75.27
2023-03-11T20:01:50.545Z,75.32
2023-03-11T20:06:50.104Z,75.29
2023-03-11T20:11:49.231Z,75.35
2023-03-11T20:16:48.592Z,75.54
2023-03-11T20:21:48.335Z,75.61
2023-03-11T20:26:49.947Z,75.68
2023-03-11T20:31:50.702Z,75.71
2023-03-11T20:36:51.144Z,75.71
2023-03-11T20:41:50.604Z,75.73
2023-03-11T20:46:50.422Z,75.93
2023-03-11T20:51:49.923Z,76.09
2023-03-11T20:56:51.026Z,76.32
2023-03-11T21:01:51.007Z,76.37
2023-03-11T21:06:52.554Z,76.35
2023-03-11T21:11:52.088Z,76.42
2023-03-11T21:16:53.260Z,76.46
2023-03-11T21:21:53.121Z,76.43
2023-03-11T21:26:53.385Z,76.50
2023-03-11T21:31:53.365Z,76.75
2023-03-11T21:36:52.665Z,76.83
2023-03-11T21:41:53.468Z,76.80
2023-03-11T21:46:53.552Z,76.91
2023-03-11T21:51:53.021Z,77.12
2023-03-11T21:56:52.807Z,77.34
2023-03-11T22:01:51.625Z,77.52
2023-03-11T22:06:51.397Z,77.81
2023-03-11T22:11:50.653Z,77.82
2023-03-11T22:16:50.063Z,78.07
2023-03-11T22:21:50.899Z,78.15
2023-03-11T22:26:49.968Z,78.44
2023-03-11T22:31:49.933Z,78.63
2023-03-11T22:36:49.164Z,78.77
2023-03-11T22:41:47.758Z,78.77
2023-03-11T22:46:47.641Z,78.87
2023-03-11T22:51:47.203Z,78.81
2023-03-11T22:56:46.397Z,79.04
2023-03-11T23:01:46.164Z,79.03
2023-03-11T23:06:45.951Z,78.98
2023-03-11T23:11:45.112Z,79.05
2023-03-11T23:16:43.672Z,79.08
2023-03-11T23:21:43.308Z,79.00
2023-03-11T23:26:42.311Z,79.00
2023-03-11T23:31:41.888Z,78.98
2023-03-11T23:36:41.315Z,78.76
2023-03-11T23:41:40.927Z,78.82
2023-03-11T23:46:39.747Z,78.82
2023-03-11T23:51:38.500Z,78.75
2023-03-11T23:56:37.894Z,78.77
